createdAt,value
2022-08-17T00:00:43.800Z,66.68
2022-08-17T00:03:04.469Z,68.25
2022-08-17T00:05:08.072Z,68.39
2022-08-17T00:07:11.104Z,69.30
2022-08-17T00:09:18.463Z,69.79
2022-08-17T00:11:26.625Z,69.83
2022-08-17T00:13:33.693Z,70.41
2022-08-17T00:15:36.385Z,70.68
2022-08-17T00:17:40.038Z,70.26
2022-08-17T00:19:42.650Z,69.78
2022-08-17T00:21:56.321Z,69.89
2022-08-17T00:24:11.476Z,70.07
2022-08-17T00:26:14.720Z,70.48
2022-08-17T00:28:38.939Z,71.22
2022-08-17T00:30:51.068Z,71.32
2022-08-17T00:33:14.005Z,71.34
2022-08-17T00:35:23.387Z,70.68
2022-08-17T00:37:26.035Z,70.27
2022-08-17T00:39:28.814Z,69.90
2022-08-17T00:41:31.515Z,69.94
2022-08-17T00:43:36.292Z,69.91
2022-08-17T00:45:39.270Z,70.09
2022-08-17T00:47:42.511Z,70.01
2022-08-17T00:49:45.089Z,70.00
2022-08-17T00:51:59.031Z,70.90
2022-08-17T00:54:12.916Z,71.62
2022-08-17T00:56:21.321Z,72.18
2022-08-17T00:58:33.003Z,72.65
2022-08-17T01:00:43.051Z,73.40
2022-08-17T01:02:47.938Z,73.51
2022-08-17T01:04:53.096Z,74.17
2022-08-17T01:06:58.576Z,74.84
2022-08-17T01:09:03.619Z,75.17
2022-08-17T01:11:08.598Z,75.61
2022-08-17T01:13:13.059Z,75.73
2022-08-17T01:15:16.530Z,76.23
2022-08-17T01:17:19.461Z,76.83
2022-08-17T01:19:25.855Z,77.25
2022-08-17T01:21:41.818Z,77.09
2022-08-17T01:23:44.414Z,76.93
2022-08-17T01:25:51.032Z,77.42
2022-08-17T01:27:53.705Z,77.37
2022-08-17T01:30:01.914Z,77.50
2022-08-17T01:32:07.470Z,77.66
2022-08-17T01:34:13.927Z,77.36
2022-08-17T01:36:16.591Z,77.37
2022-08-17T01:38:26.500Z,77.32
2022-08-17T01:40:35.787Z,77.25
2022-08-17T01:42:45.265Z,76.94
2022-08-17T01:44:48.392Z,76.53
2022-08-17T01:46:51.169Z,75.93
2022-08-17T01:48:56.513Z,75.80
2022-08-17T01:50:59.375Z,75.64
2022-08-17T01:53:12.069Z,75.39
2022-08-17T01:55:17.866Z,75.19
2022-08-17T01:57:20.462Z,74.65
2022-08-17T01:59:23.249Z,74.05
2022-08-17T02:01:28.997Z,73.72
2022-08-17T02:03:32.295Z,73.28
2022-08-17T02:05:35.931Z,73.05
2022-08-17T02:07:47.966Z,72.84
2022-08-17T02:10:20.053Z,72.81
2022-08-17T02:12:38.154Z,72.88
2022-08-17T02:14:46.883Z,72.17
2022-08-17T02:16:49.757Z,72.36
2022-08-17T02:18:52.429Z,72.20
2022-08-17T02:20:55.101Z,71.90
2022-08-17T02:23:02.677Z,71.64
2022-08-17T02:25:09.502Z,71.25
2022-08-17T02:27:13.530Z,70.44
2022-08-17T02:29:16.166Z,70.10
2022-08-17T02:31:18.726Z,69.84
2022-08-17T02:33:21.924Z,69.35
2022-08-17T02:35:24.577Z,69.40
2022-08-17T02:37:28.868Z,68.96
2022-08-17T02:39:31.653Z,68.79
2022-08-17T02:41:34.823Z,68.68
2022-08-17T02:43:37.564Z,68.46
2022-08-17T02:45:40.303Z,68.16
2022-08-17T02:47:44.348Z,68.04
2022-08-17T02:49:54.184Z,67.98
2022-08-17T02:51:59.162Z,67.84
2022-08-17T02:54:38.941Z,67.84
2022-08-17T02:56:24.448Z,67.84
2022-08-17T02:58:35.750Z,67.61
2022-08-17T03:00:42.506Z,67.59
2022-08-17T03:02:46.049Z,67.95
2022-08-17T03:04:48.789Z,68.14
2022-08-17T03:06:51.552Z,68.65
2022-08-17T03:08:54.794Z,68.91
2022-08-17T03:10:57.823Z,69.65
2022-08-17T03:13:00.739Z,69.95
2022-08-17T03:15:10.238Z,70.55
2022-08-17T03:17:17.331Z,70.53
2022-08-17T03:19:20.128Z,70.94
2022-08-17T03:21:22.682Z,70.75
2022-08-17T03:23:27.404Z,71.09
2022-08-17T03:25:36.623Z,71.63
2022-08-17T03:27:42.062Z,71.28
2022-08-17T03:29:47.277Z,71.81
2022-08-17T03:31:50.590Z,71.38
2022-08-17T03:33:53.268Z,71.41
2022-08-17T03:35:56.611Z,71.57
2022-08-17T03:38:00.406Z,70.98
2022-08-17T03:40:06.342Z,71.62
2022-08-17T03:42:31.472Z,71.50
2022-08-17T03:44:35.838Z,71.04
2022-08-17T03:46:57.058Z,70.94
2022-08-17T03:49:18.325Z,70.94
2022-08-17T03:51:42.545Z,71.05
2022-08-17T03:54:12.884Z,70.89
2022-08-17T03:56:34.181Z,69.95
2022-08-17T03:58:39.701Z,69.95
2022-08-17T04:00:45.511Z,69.58
2022-08-17T04:02:48.337Z,69.54
2022-08-17T04:04:52.566Z,68.64
2022-08-17T04:06:55.318Z,68.36
2022-08-17T04:08:57.941Z,67.58
2022-08-17T04:11:01.673Z,66.79
2022-08-17T04:13:04.721Z,66.07
2022-08-17T04:15:07.866Z,65.63
2022-08-17T04:17:10.451Z,65.77
2022-08-17T04:19:13.139Z,64.78
2022-08-17T04:21:15.868Z,64.41
2022-08-17T04:23:19.482Z,64.48
2022-08-17T04:25:22.550Z,64.08
2022-08-17T04:27:25.307Z,64.02
2022-08-17T04:29:27.932Z,63.19
2022-08-17T04:31:50.736Z,63.87
2022-08-17T04:33:54.798Z,62.95
2022-08-17T04:36:00.644Z,63.46
2022-08-17T04:38:03.376Z,63.66
2022-08-17T04:40:27.201Z,63.28
2022-08-17T04:42:30.288Z,62.96
2022-08-17T04:44:37.608Z,63.70
2022-08-17T04:46:40.938Z,63.07
2022-08-17T04:48:46.620Z,62.32
2022-08-17T04:50:50.819Z,62.29
2022-08-17T04:52:53.503Z,61.49
2022-08-17T04:54:56.105Z,61.63
2022-08-17T04:56:58.679Z,61.44
2022-08-17T04:59:05.412Z,61.07
2022-08-17T05:01:08.694Z,61.49
2022-08-17T05:03:11.440Z,61.98
2022-08-17T05:05:20.051Z,61.72
2022-08-17T05:07:26.236Z,61.24
2022-08-17T05:09:31.175Z,61.58
2022-08-17T05:11:34.207Z,61.91
2022-08-17T05:13:36.862Z,61.83
2022-08-17T05:15:44.712Z,61.39
2022-08-17T05:17:47.857Z,61.11
2022-08-17T05:19:52.099Z,61.38
2022-08-17T05:21:54.817Z,62.16
2022-08-17T05:23:58.878Z,61.71
2022-08-17T05:26:02.301Z,60.89
2022-08-17T05:28:06.084Z,61.07
2022-08-17T05:30:09.216Z,60.37
2022-08-17T05:32:38.089Z,59.65
2022-08-17T05:34:36.844Z,59.70
2022-08-17T05:36:44.149Z,59.71
2022-08-17T05:38:47.604Z,59.51
2022-08-17T05:40:50.971Z,59.53
2022-08-17T05:43:09.303Z,57.95
2022-08-17T05:45:12.655Z,57.29
2022-08-17T05:47:16.012Z,58.06
2022-08-17T05:49:27.453Z,58.14
2022-08-17T05:51:56.466Z,57.07
2022-08-17T05:54:37.215Z,56.12
2022-08-17T05:56:49.027Z,55.31
2022-08-17T05:59:20.482Z,54.94
2022-08-17T06:01:41.901Z,53.76
2022-08-17T06:04:10.991Z,55.21
2022-08-17T06:06:53.191Z,55.77
2022-08-17T06:09:34.021Z,54.77
2022-08-17T06:11:40.124Z,53.21
2022-08-17T06:13:58.664Z,53.55
2022-08-17T06:16:33.050Z,53.16
2022-08-17T06:19:04.869Z,52.40
2022-08-17T06:21:13.567Z,52.29
2022-08-17T06:23:32.846Z,53.59
2022-08-17T06:25:45.892Z,51.46
2022-08-17T06:27:54.044Z,50.35
2022-08-17T06:30:08.781Z,48.83
2022-08-17T06:32:13.034Z,48.07
2022-08-17T06:34:16.298Z,48.25
2022-08-17T06:36:33.264Z,48.12
2022-08-17T06:39:09.456Z,48.17
2022-08-17T06:41:23.142Z,48.93
2022-08-17T06:43:40.432Z,47.93
2022-08-17T06:45:49.607Z,47.04
2022-08-17T06:48:15.402Z,46.68
2022-08-17T06:50:27.312Z,46.71
2022-08-17T06:52:55.755Z,46.55
2022-08-17T06:55:07.281Z,46.87
2022-08-17T06:57:19.587Z,45.61
2022-08-17T06:59:55.684Z,44.96
2022-08-17T07:02:05.754Z,44.30
2022-08-17T07:04:31.429Z,44.82
2022-08-17T07:06:38.672Z,45.70
2022-08-17T07:09:05.774Z,45.83
2022-08-17T07:11:17.541Z,44.64
2022-08-17T07:13:51.799Z,42.98
2022-08-17T07:16:13.388Z,43.74
2022-08-17T07:18:16.201Z,42.80
2022-08-17T07:20:22.631Z,42.99
2022-08-17T07:22:58.158Z,43.14
2022-08-17T07:25:00.229Z,45.13
2022-08-17T07:27:37.312Z,43.36
2022-08-17T07:29:53.859Z,44.88
2022-08-17T07:31:56.527Z,45.00
2022-08-17T07:34:11.200Z,44.09
2022-08-17T07:36:29.982Z,44.53
2022-08-17T07:38:35.755Z,43.87
2022-08-17T07:40:39.690Z,44.01
2022-08-17T07:42:45.082Z,42.66
2022-08-17T07:44:54.124Z,43.51
2022-08-17T07:47:15.933Z,42.53
2022-08-17T07:49:33.017Z,42.70
2022-08-17T07:51:42.663Z,41.99
2022-08-17T07:53:45.688Z,42.54
2022-08-17T07:55:48.994Z,42.38
2022-08-17T07:57:57.596Z,41.52
2022-08-17T08:00:01.556Z,41.47
2022-08-17T08:02:31.863Z,41.78
2022-08-17T08:07:05.983Z,41.71
2022-08-17T08:09:08.625Z,41.21
2022-08-17T08:11:15.666Z,40.12
2022-08-17T08:13:21.264Z,40.34
2022-08-17T08:15:33.446Z,41.15
2022-08-17T08:17:47.849Z,41.26
2022-08-17T08:19:50.471Z,40.58
2022-08-17T08:22:05.763Z,39.91
2022-08-17T08:24:31.805Z,39.69
2022-08-17T08:26:46.558Z,39.31
2022-08-17T08:29:19.697Z,39.69
2022-08-17T08:31:45.165Z,39.86
2022-08-17T08:34:02.979Z,39.84
2022-08-17T08:36:13.580Z,39.66
2022-08-17T08:39:03.590Z,38.53
2022-08-17T08:41:31.004Z,39.27
2022-08-17T08:44:13.085Z,38.74
2022-08-17T08:46:46.077Z,38.89
2022-08-17T08:49:06.490Z,37.73
2022-08-17T08:51:39.020Z,38.08
2022-08-17T08:53:56.691Z,38.33
2022-08-17T08:56:34.609Z,37.88
2022-08-17T08:58:52.830Z,37.18
2022-08-17T09:00:58.711Z,38.30
2022-08-17T09:03:16.949Z,37.19
2022-08-17T09:05:39.885Z,36.66
2022-08-17T09:08:16.025Z,36.56
2022-08-17T09:10:27.362Z,38.41
2022-08-17T09:12:48.847Z,37.39
2022-08-17T09:15:03.697Z,37.33
2022-08-17T09:17:19.482Z,36.68
2022-08-17T09:19:30.630Z,37.13
2022-08-17T09:21:41.480Z,37.13
2022-08-17T09:24:05.952Z,37.07
2022-08-17T09:26:35.396Z,36.55
2022-08-17T09:28:42.794Z,35.76
2022-08-17T09:30:50.085Z,35.86
2022-08-17T09:33:07.074Z,35.58
2022-08-17T09:35:17.699Z,34.96
2022-08-17T09:37:37.930Z,34.98
2022-08-17T09:39:53.608Z,35.10
2022-08-17T09:42:01.945Z,34.76
2022-08-17T09:44:23.948Z,34.98
2022-08-17T09:46:46.031Z,35.18
2022-08-17T09:49:21.865Z,36.07
2022-08-17T09:51:37.104Z,36.14
2022-08-17T09:53:40.788Z,35.40
2022-08-17T09:55:55.962Z,36.08
2022-08-17T09:58:09.458Z,35.88
2022-08-17T10:00:27.702Z,36.27
2022-08-17T10:02:51.125Z,35.45
2022-08-17T10:05:13.894Z,35.05
2022-08-17T10:07:38.497Z,35.19
2022-08-17T10:09:59.847Z,34.48
2022-08-17T10:12:29.864Z,35.16
2022-08-17T10:14:53.518Z,35.34
2022-08-17T10:17:24.247Z,34.58
2022-08-17T10:19:32.993Z,34.29
2022-08-17T10:22:00.783Z,34.80
2022-08-17T10:25:21.739Z,34.08
2022-08-17T10:27:13.678Z,33.60
2022-08-17T10:29:23.121Z,34.74
2022-08-17T10:31:34.661Z,33.72
2022-08-17T10:34:09.637Z,33.67
2022-08-17T10:36:26.770Z,33.51
2022-08-17T10:39:16.844Z,34.05
2022-08-17T10:41:39.695Z,32.40
2022-08-17T10:44:38.414Z,33.00
2022-08-17T10:46:52.942Z,32.23
2022-08-17T10:49:18.206Z,32.24
2022-08-17T10:51:42.504Z,32.68
2022-08-17T10:53:49.583Z,32.74
2022-08-17T10:56:17.743Z,32.18
2022-08-17T10:58:24.694Z,31.24
2022-08-17T11:00:53.666Z,32.09
2022-08-17T11:02:58.289Z,31.46
2022-08-17T11:05:00.894Z,30.98
2022-08-17T11:07:21.645Z,31.07
2022-08-17T11:09:42.615Z,31.08
2022-08-17T11:11:50.234Z,31.44
2022-08-17T11:14:30.891Z,30.67
2022-08-17T11:16:48.301Z,30.30
2022-08-17T11:19:21.680Z,29.91
2022-08-17T11:22:04.292Z,30.63
2022-08-17T11:24:33.254Z,30.40
2022-08-17T11:26:39.182Z,30.96
2022-08-17T11:28:52.474Z,29.94
2022-08-17T11:30:59.704Z,30.47
2022-08-17T11:33:36.712Z,30.37
2022-08-17T11:35:51.541Z,30.42
2022-08-17T11:38:16.703Z,29.72
2022-08-17T11:40:41.610Z,30.00
2022-08-17T11:43:13.725Z,30.47
2022-08-17T11:45:32.414Z,28.34
2022-08-17T11:48:27.069Z,29.07
2022-08-17T11:51:13.291Z,28.84
2022-08-17T11:53:37.534Z,27.87
2022-08-17T11:55:44.440Z,28.55
2022-08-17T11:58:00.037Z,28.64
2022-08-17T12:00:11.969Z,28.09
2022-08-17T12:02:20.509Z,28.11
2022-08-17T12:04:32.272Z,27.17
2022-08-17T12:06:44.178Z,27.73
2022-08-17T12:09:16.053Z,28.20
2022-08-17T12:12:11.161Z,27.89
2022-08-17T12:14:16.975Z,27.35
2022-08-17T12:16:22.206Z,26.92
2022-08-17T12:18:29.515Z,26.47
2022-08-17T12:20:40.198Z,26.68
2022-08-17T12:23:09.695Z,27.15
2022-08-17T12:25:20.469Z,27.63
2022-08-17T12:27:46.125Z,26.97
2022-08-17T12:29:52.200Z,27.96
2022-08-17T12:31:55.420Z,27.50
2022-08-17T12:34:00.633Z,28.25
2022-08-17T12:36:07.705Z,27.29
2022-08-17T12:38:31.829Z,27.20
2022-08-17T12:40:36.393Z,27.21
2022-08-17T12:42:40.578Z,26.73
2022-08-17T12:44:49.629Z,26.63
2022-08-17T12:47:04.832Z,27.38
2022-08-17T12:49:14.534Z,26.79
2022-08-17T12:51:17.501Z,27.10
2022-08-17T12:53:30.112Z,26.69
2022-08-17T12:55:37.501Z,26.10
2022-08-17T12:57:44.319Z,26.69
2022-08-17T12:59:53.683Z,25.66
2022-08-17T13:01:56.517Z,24.90
2022-08-17T13:04:01.012Z,25.17
2022-08-17T13:06:09.884Z,26.52
2022-08-17T13:08:28.505Z,26.80
2022-08-17T13:10:34.341Z,26.09
2022-08-17T13:12:39.298Z,24.93
2022-08-17T13:14:51.085Z,24.48
2022-08-17T13:16:58.441Z,24.40
2022-08-17T13:19:15.446Z,23.98
2022-08-17T13:21:23.741Z,25.76
2022-08-17T13:23:29.508Z,25.21
2022-08-17T13:25:35.172Z,25.31
2022-08-17T13:27:42.929Z,24.85
2022-08-17T13:29:45.725Z,25.03
2022-08-17T13:32:13.776Z,24.82
2022-08-17T13:34:31.320Z,25.89
2022-08-17T13:36:36.207Z,26.12
2022-08-17T13:38:47.454Z,24.70
2022-08-17T13:40:53.417Z,23.66
2022-08-17T13:42:56.648Z,23.88
2022-08-17T13:45:00.453Z,25.09
2022-08-17T13:47:06.012Z,24.82
2022-08-17T13:49:12.225Z,23.48
2022-08-17T13:51:22.445Z,24.55
2022-08-17T13:53:36.357Z,24.62
2022-08-17T13:55:40.087Z,23.24
2022-08-17T13:57:48.316Z,22.62
2022-08-17T14:00:17.750Z,23.30
2022-08-17T14:02:21.461Z,23.53
2022-08-17T14:04:28.266Z,24.85
2022-08-17T14:07:03.978Z,23.67
2022-08-17T14:09:06.762Z,23.62
2022-08-17T14:11:09.460Z,23.76
2022-08-17T14:13:16.024Z,23.44
2022-08-17T14:15:21.833Z,23.56
2022-08-17T14:17:26.452Z,24.04
2022-08-17T14:19:29.264Z,24.68
2022-08-17T14:21:31.987Z,23.85
2022-08-17T14:23:35.493Z,23.53
2022-08-17T14:25:38.170Z,24.52
2022-08-17T14:27:41.347Z,24.14
2022-08-17T14:29:56.200Z,23.93
2022-08-17T14:32:04.517Z,24.30
2022-08-17T14:34:07.798Z,24.07
2022-08-17T14:36:10.571Z,24.36
2022-08-17T14:38:13.730Z,24.03
2022-08-17T14:40:20.576Z,25.98
2022-08-17T14:42:25.764Z,24.89
2022-08-17T14:44:28.555Z,24.94
2022-08-17T14:46:51.132Z,26.00
2022-08-17T14:48:57.183Z,24.17
2022-08-17T14:51:00.149Z,26.14
2022-08-17T14:53:04.761Z,24.74
2022-08-17T14:55:08.658Z,25.16
2022-08-17T14:57:22.790Z,25.85
2022-08-17T14:59:28.939Z,24.33
2022-08-17T15:01:31.968Z,25.52
2022-08-17T15:03:34.671Z,24.94
2022-08-17T15:05:39.533Z,26.05
2022-08-17T15:07:44.605Z,27.11
2022-08-17T15:09:47.336Z,26.89
2022-08-17T15:11:50.872Z,28.07
2022-08-17T15:13:53.466Z,28.27
2022-08-17T15:15:57.163Z,29.27
2022-08-17T15:18:00.122Z,31.21
2022-08-17T15:20:03.819Z,30.29
2022-08-17T15:22:07.157Z,31.33
2022-08-17T15:24:09.900Z,31.64
2022-08-17T15:26:12.716Z,32.49
2022-08-17T15:28:15.599Z,31.29
2022-08-17T15:30:18.631Z,32.38
2022-08-17T15:32:33.504Z,33.97
2022-08-17T15:34:36.730Z,32.21
2022-08-17T15:36:43.873Z,32.44
2022-08-17T15:38:52.536Z,32.79
2022-08-17T15:41:01.601Z,35.51
2022-08-17T15:43:11.514Z,35.80
2022-08-17T15:45:16.646Z,35.47
2022-08-17T15:47:19.214Z,36.48
2022-08-17T15:49:22.017Z,37.36
2022-08-17T15:51:28.776Z,36.29
2022-08-17T15:53:31.424Z,37.89
2022-08-17T15:55:35.369Z,37.90
2022-08-17T15:57:39.969Z,38.96
2022-08-17T15:59:43.562Z,38.48
2022-08-17T16:03:13.027Z,38.32
2022-08-17T16:04:30.428Z,38.64
2022-08-17T16:06:33.807Z,39.47
2022-08-17T16:08:37.155Z,39.98
2022-08-17T16:10:40.428Z,39.52
2022-08-17T16:12:47.924Z,40.61
2022-08-17T16:14:53.507Z,40.43
2022-08-17T16:16:56.074Z,40.42
2022-08-17T16:18:59.179Z,40.06
2022-08-17T16:21:23.538Z,40.88
2022-08-17T16:23:26.621Z,41.54
2022-08-17T16:25:52.305Z,42.13
2022-08-17T16:27:54.717Z,39.94
2022-08-17T16:29:57.413Z,40.40
2022-08-17T16:32:13.027Z,41.41
2022-08-17T16:34:18.682Z,40.92
2022-08-17T16:36:23.355Z,40.53
2022-08-17T16:38:25.946Z,41.26
2022-08-17T16:40:31.343Z,40.77
2022-08-17T16:42:40.476Z,41.27
2022-08-17T16:44:43.134Z,41.54
2022-08-17T16:46:47.107Z,41.99
2022-08-17T16:48:49.693Z,42.04
2022-08-17T16:51:03.025Z,40.98
2022-08-17T16:53:11.975Z,41.74
2022-08-17T16:55:17.131Z,41.64
2022-08-17T16:57:19.806Z,42.08
2022-08-17T16:59:38.723Z,41.47
2022-08-17T17:01:43.592Z,42.97
2022-08-17T17:03:54.125Z,43.37
2022-08-17T17:06:14.595Z,42.76
2022-08-17T17:08:23.210Z,42.70
2022-08-17T17:10:47.627Z,42.39
2022-08-17T17:13:02.090Z,42.58
2022-08-17T17:15:07.620Z,42.39
2022-08-17T17:17:25.444Z,43.51
2022-08-17T17:19:41.436Z,43.62
2022-08-17T17:22:19.204Z,43.40
2022-08-17T17:24:39.877Z,42.40
2022-08-17T17:26:50.124Z,43.14
2022-08-17T17:29:01.424Z,42.81
2022-08-17T17:31:14.146Z,43.26
2022-08-17T17:33:21.469Z,43.89
2022-08-17T17:35:31.995Z,44.07
2022-08-17T17:37:37.278Z,44.25
2022-08-17T17:39:49.205Z,43.51
2022-08-17T17:41:55.088Z,43.62
2022-08-17T17:44:12.262Z,43.74
2022-08-17T17:46:33.458Z,44.50
2022-08-17T17:48:36.861Z,44.88
2022-08-17T17:50:51.904Z,45.35
2022-08-17T17:53:07.779Z,44.51
2022-08-17T17:55:47.815Z,45.59
2022-08-17T17:57:56.074Z,45.13
2022-08-17T18:00:12.183Z,45.33
2022-08-17T18:02:55.187Z,46.39
2022-08-17T18:05:06.585Z,45.09
2022-08-17T18:07:15.497Z,45.47
2022-08-17T18:09:34.177Z,45.40
2022-08-17T18:11:45.734Z,45.68
2022-08-17T18:13:56.991Z,45.91
2022-08-17T18:16:04.202Z,46.37
2022-08-17T18:18:09.899Z,46.51
2022-08-17T18:20:14.349Z,47.05
2022-08-17T18:22:25.294Z,46.95
2022-08-17T18:24:37.800Z,47.82
2022-08-17T18:26:57.390Z,47.55
2022-08-17T18:29:31.903Z,49.44
2022-08-17T18:31:34.476Z,48.53
2022-08-17T18:33:39.601Z,48.32
2022-08-17T18:35:51.484Z,48.47
2022-08-17T18:38:20.666Z,48.51
2022-08-17T18:40:32.283Z,49.52
2022-08-17T18:42:36.516Z,49.27
2022-08-17T18:44:39.237Z,49.80
2022-08-17T18:46:42.405Z,49.91
2022-08-17T18:49:19.982Z,50.58
2022-08-17T18:51:40.525Z,50.55
2022-08-17T18:53:45.090Z,50.59
2022-08-17T18:55:47.725Z,51.26
2022-08-17T18:57:55.160Z,51.37
2022-08-17T18:59:58.840Z,51.10
2022-08-17T19:02:28.232Z,51.13
2022-08-17T19:05:02.442Z,51.38
2022-08-17T19:07:17.734Z,51.59
2022-08-17T19:09:33.352Z,51.55
2022-08-17T19:11:36.192Z,51.37
2022-08-17T19:13:52.173Z,51.44
2022-08-17T19:16:18.794Z,51.23
2022-08-17T19:18:30.022Z,51.31
2022-08-17T19:20:36.213Z,51.79
2022-08-17T19:23:12.566Z,52.61
2022-08-17T19:25:27.123Z,52.86
2022-08-17T19:27:46.306Z,53.39
2022-08-17T19:29:55.101Z,54.27
2022-08-17T19:31:58.882Z,53.61
2022-08-17T19:34:02.626Z,53.62
2022-08-17T19:36:18.822Z,53.92
2022-08-17T19:38:39.117Z,54.55
2022-08-17T19:41:03.199Z,54.51
2022-08-17T19:43:20.937Z,54.62
2022-08-17T19:45:58.510Z,55.32
2022-08-17T19:48:09.373Z,54.99
2022-08-17T19:50:25.947Z,56.08
2022-08-17T19:52:47.050Z,55.89
2022-08-17T19:55:05.128Z,56.58
2022-08-17T19:57:16.650Z,56.50
2022-08-17T19:59:49.106Z,57.07
2022-08-17T20:02:01.191Z,57.05
2022-08-17T20:04:14.558Z,57.35
2022-08-17T20:06:19.457Z,57.44
2022-08-17T20:08:33.555Z,57.74
2022-08-17T20:10:55.016Z,58.09
2022-08-17T20:13:04.484Z,57.89
2022-08-17T20:15:10.252Z,57.98
2022-08-17T20:17:13.036Z,58.23
2022-08-17T20:19:45.200Z,58.35
2022-08-17T20:22:04.885Z,58.73
2022-08-17T20:24:30.364Z,58.83
2022-08-17T20:26:58.121Z,59.20
2022-08-17T20:29:10.369Z,59.38
2022-08-17T20:31:46.878Z,59.72
2022-08-17T20:33:49.538Z,60.14
2022-08-17T20:36:16.151Z,60.76
2022-08-17T20:38:41.762Z,61.13
2022-08-17T20:40:57.510Z,61.32
2022-08-17T20:43:35.480Z,61.41
2022-08-17T20:46:10.498Z,61.66
2022-08-17T20:48:36.747Z,61.77
2022-08-17T20:50:45.471Z,61.60
2022-08-17T20:52:51.035Z,61.40
2022-08-17T20:54:57.409Z,61.45
2022-08-17T20:57:01.183Z,61.56
2022-08-17T20:59:04.096Z,61.19
2022-08-17T21:01:24.468Z,61.56
2022-08-17T21:03:47.570Z,61.26
2022-08-17T21:06:17.306Z,61.19
2022-08-17T21:08:30.751Z,61.24
2022-08-17T21:10:36.500Z,61.35
2022-08-17T21:12:48.134Z,60.93
2022-08-17T21:15:28.682Z,61.18
2022-08-17T21:17:43.727Z,61.16
2022-08-17T21:20:13.069Z,61.21
2022-08-17T21:22:46.560Z,60.68
2022-08-17T21:25:08.588Z,60.95
2022-08-17T21:27:26.125Z,60.50
2022-08-17T21:29:34.172Z,60.40
2022-08-17T21:31:47.982Z,60.13
2022-08-17T21:34:17.102Z,60.45
2022-08-17T21:36:26.620Z,59.63
2022-08-17T21:38:37.204Z,59.85
2022-08-17T21:40:44.993Z,59.73
2022-08-17T21:42:57.811Z,59.66
2022-08-17T21:45:25.398Z,59.36
2022-08-17T21:47:30.399Z,60.11
2022-08-17T21:49:37.825Z,59.90
2022-08-17T21:51:45.631Z,59.08
2022-08-17T21:53:52.124Z,59.93
2022-08-17T21:55:54.831Z,60.00
2022-08-17T21:58:13.884Z,59.04
2022-08-17T22:00:26.132Z,60.11
2022-08-17T22:02:35.638Z,59.48
2022-08-17T22:04:41.556Z,59.43
2022-08-17T22:06:57.441Z,59.52
2022-08-17T22:09:47.049Z,60.13
2022-08-17T22:12:02.032Z,60.43
2022-08-17T22:14:17.433Z,59.81
2022-08-17T22:16:29.306Z,59.31
2022-08-17T22:18:32.569Z,59.66
2022-08-17T22:20:35.411Z,59.45
2022-08-17T22:23:05.343Z,59.20
2022-08-17T22:25:19.967Z,59.93
2022-08-17T22:27:23.331Z,59.24
2022-08-17T22:29:58.355Z,59.56
2022-08-17T22:32:01.095Z,59.50
2022-08-17T22:34:03.664Z,59.85
2022-08-17T22:36:12.520Z,59.38
2022-08-17T22:38:21.281Z,59.42
2022-08-17T22:40:30.615Z,59.47
2022-08-17T22:42:44.038Z,59.18
2022-08-17T22:44:50.574Z,59.31
2022-08-17T22:46:58.919Z,59.74
2022-08-17T22:49:01.565Z,60.18
2022-08-17T22:51:13.383Z,59.08
2022-08-17T22:53:39.323Z,59.34
2022-08-17T22:56:09.575Z,58.98
2022-08-17T22:58:34.950Z,59.62
2022-08-17T23:00:44.933Z,59.63
2022-08-17T23:03:10.677Z,58.10
2022-08-17T23:05:13.370Z,58.70
2022-08-17T23:07:17.583Z,59.98
2022-08-17T23:09:20.143Z,58.28
2022-08-17T23:11:42.921Z,58.95
2022-08-17T23:13:56.669Z,59.08
2022-08-17T23:15:59.617Z,58.56
2022-08-17T23:18:05.318Z,58.47
2022-08-17T23:20:12.306Z,58.55
2022-08-17T23:22:14.855Z,59.36
2022-08-17T23:24:25.483Z,59.63
2022-08-17T23:26:29.746Z,59.28
2022-08-17T23:28:34.474Z,58.66
2022-08-17T23:30:43.937Z,58.84
2022-08-17T23:32:53.179Z,59.04
2022-08-17T23:34:59.400Z,59.78
2022-08-17T23:37:02.424Z,59.78
2022-08-17T23:39:06.617Z,59.52
2022-08-17T23:41:13.434Z,60.38
2022-08-17T23:43:23.709Z,60.28
2022-08-17T23:45:27.713Z,59.87
2022-08-17T23:47:30.310Z,60.05
2022-08-17T23:49:32.928Z,60.77
2022-08-17T23:51:42.755Z,60.74
2022-08-17T23:53:53.092Z,61.28
2022-08-17T23:56:09.137Z,61.49
2022-08-17T23:58:13.146Z,61.58
